sensor_id;sensor_type;location;lat;lon;timestamp;pressure;altitude;pressure_sealevel;temperature
15626;BMP180;7912;51.376;6.126;2023-07-28T00:00:26;100189.00;;;21.40
15626;BMP180;7912;51.376;6.126;2023-07-28T00:03:06;100192.00;;;21.40
15626;BMP180;7912;51.376;6.126;2023-07-28T00:06:06;100192.00;;;21.40
15626;BMP180;7912;51.376;6.126;2023-07-28T00:08:42;100196.00;;;21.40
15626;BMP180;7912;51.376;6.126;2023-07-28T00:11:14;100186.00;;;21.30
15626;BMP180;7912;51.376;6.126;2023-07-28T00:13:43;100181.00;;;21.30
15626;BMP180;7912;51.376;6.126;2023-07-28T00:16:14;100181.00;;;21.30
15626;BMP180;7912;51.376;6.126;2023-07-28T00:18:44;100182.00;;;21.30
15626;BMP180;7912;51.376;6.126;2023-07-28T00:21:14;100178.00;;;21.40
15626;BMP180;7912;51.376;6.126;2023-07-28T00:23:41;100193.00;;;21.40
15626;BMP180;7912;51.376;6.126;2023-07-28T00:26:09;100188.00;;;21.40
15626;BMP180;7912;51.376;6.126;2023-07-28T00:28:36;100183.00;;;21.40
15626;BMP180;7912;51.376;6.126;2023-07-28T00:31:03;100173.00;;;21.50
15626;BMP180;7912;51.376;6.126;2023-07-28T00:33:31;100178.00;;;21.50
15626;BMP180;7912;51.376;6.126;2023-07-28T00:36:01;100167.00;;;21.50
15626;BMP180;7912;51.376;6.126;2023-07-28T00:38:28;100173.00;;;21.50
15626;BMP180;7912;51.376;6.126;2023-07-28T00:41:00;100178.00;;;21.50
15626;BMP180;7912;51.376;6.126;2023-07-28T00:43:28;100177.00;;;21.50
15626;BMP180;7912;51.376;6.126;2023-07-28T00:45:56;100187.00;;;21.60
15626;BMP180;7912;51.376;6.126;2023-07-28T00:48:23;100182.00;;;21.60
15626;BMP180;7912;51.376;6.126;2023-07-28T00:50:53;100164.00;;;21.60
15626;BMP180;7912;51.376;6.126;2023-07-28T00:53:33;100173.00;;;21.60
15626;BMP180;7912;51.376;6.126;2023-07-28T00:56:23;100179.00;;;21.60
15626;BMP180;7912;51.376;6.126;2023-07-28T00:58:56;100177.00;;;21.60
15626;BMP180;7912;51.376;6.126;2023-07-28T01:01:24;100173.00;;;21.60
15626;BMP180;7912;51.376;6.126;2023-07-28T01:03:52;100180.00;;;21.60
15626;BMP180;7912;51.376;6.126;2023-07-28T01:09:19;100174.00;;;21.70
15626;BMP180;7912;51.376;6.126;2023-07-28T01:11:57;100184.00;;;21.70
15626;BMP180;7912;51.376;6.126;2023-07-28T01:14:25;100174.00;;;21.70
15626;BMP180;7912;51.376;6.126;2023-07-28T01:16:53;100183.00;;;21.70
15626;BMP180;7912;51.376;6.126;2023-07-28T01:19:21;100186.00;;;21.70
15626;BMP180;7912;51.376;6.126;2023-07-28T01:24:49;100184.00;;;21.70
15626;BMP180;7912;51.376;6.126;2023-07-28T01:27:18;100184.00;;;21.70
15626;BMP180;7912;51.376;6.126;2023-07-28T01:29:46;100180.00;;;21.70
15626;BMP180;7912;51.376;6.126;2023-07-28T01:32:14;100181.00;;;21.70
15626;BMP180;7912;51.376;6.126;2023-07-28T01:34:46;100171.00;;;21.70
15626;BMP180;7912;51.376;6.126;2023-07-28T01:37:21;100174.00;;;21.70
15626;BMP180;7912;51.376;6.126;2023-07-28T01:39:53;100170.00;;;21.70
15626;BMP180;7912;51.376;6.126;2023-07-28T01:42:33;100167.00;;;21.70
15626;BMP180;7912;51.376;6.126;2023-07-28T01:45:08;100171.00;;;21.70
15626;BMP180;7912;51.376;6.126;2023-07-28T01:47:48;100170.00;;;21.70
15626;BMP180;7912;51.376;6.126;2023-07-28T01:50:20;100162.00;;;21.80
15626;BMP180;7912;51.376;6.126;2023-07-28T01:53:04;100166.00;;;21.80
15626;BMP180;7912;51.376;6.126;2023-07-28T01:55:35;100164.00;;;21.80
15626;BMP180;7912;51.376;6.126;2023-07-28T01:58:03;100160.00;;;21.80
15626;BMP180;7912;51.376;6.126;2023-07-28T02:00:44;100158.00;;;21.90
15626;BMP180;7912;51.376;6.126;2023-07-28T02:03:20;100164.00;;;21.80
15626;BMP180;7912;51.376;6.126;2023-07-28T02:05:47;100169.00;;;21.90
15626;BMP180;7912;51.376;6.126;2023-07-28T02:08:31;100159.00;;;21.80
15626;BMP180;7912;51.376;6.126;2023-07-28T02:11:10;100161.00;;;21.90
15626;BMP180;7912;51.376;6.126;2023-07-28T02:13:40;100163.00;;;21.90
15626;BMP180;7912;51.376;6.126;2023-07-28T02:16:14;100162.00;;;21.90
15626;BMP180;7912;51.376;6.126;2023-07-28T02:18:48;100155.00;;;21.90
15626;BMP180;7912;51.376;6.126;2023-07-28T02:21:25;100171.00;;;21.90
15626;BMP180;7912;51.376;6.126;2023-07-28T02:24:20;100170.00;;;21.90
15626;BMP180;7912;51.376;6.126;2023-07-28T02:27:04;100155.00;;;21.90
15626;BMP180;7912;51.376;6.126;2023-07-28T02:29:54;100167.00;;;21.90
15626;BMP180;7912;51.376;6.126;2023-07-28T02:32:30;100176.00;;;21.90
15626;BMP180;7912;51.376;6.126;2023-07-28T02:35:15;100163.00;;;21.90
15626;BMP180;7912;51.376;6.126;2023-07-28T02:38:10;100168.00;;;21.90
15626;BMP180;7912;51.376;6.126;2023-07-28T02:40:45;100172.00;;;21.90
15626;BMP180;7912;51.376;6.126;2023-07-28T02:43:29;100167.00;;;21.90
15626;BMP180;7912;51.376;6.126;2023-07-28T02:46:24;100175.00;;;21.90
15626;BMP180;7912;51.376;6.126;2023-07-28T02:52:18;100186.00;;;21.90
15626;BMP180;7912;51.376;6.126;2023-07-28T02:54:45;100193.00;;;21.90
15626;BMP180;7912;51.376;6.126;2023-07-28T02:57:36;100194.00;;;21.90
15626;BMP180;7912;51.376;6.126;2023-07-28T03:00:46;100194.00;;;21.90
15626;BMP180;7912;51.376;6.126;2023-07-28T03:04:04;100205.00;;;21.90
15626;BMP180;7912;51.376;6.126;2023-07-28T03:06:36;100203.00;;;22.00
15626;BMP180;7912;51.376;6.126;2023-07-28T03:09:07;100198.00;;;22.00
15626;BMP180;7912;51.376;6.126;2023-07-28T03:11:47;100201.00;;;22.00
15626;BMP180;7912;51.376;6.126;2023-07-28T03:14:26;100205.00;;;22.00
15626;BMP180;7912;51.376;6.126;2023-07-28T03:17:07;100208.00;;;22.00
15626;BMP180;7912;51.376;6.126;2023-07-28T03:19:38;100207.00;;;22.10
15626;BMP180;7912;51.376;6.126;2023-07-28T03:22:09;100216.00;;;22.10
15626;BMP180;7912;51.376;6.126;2023-07-28T03:24:37;100210.00;;;22.10
15626;BMP180;7912;51.376;6.126;2023-07-28T03:27:07;100206.00;;;22.10
15626;BMP180;7912;51.376;6.126;2023-07-28T03:29:37;100211.00;;;22.10
15626;BMP180;7912;51.376;6.126;2023-07-28T03:32:04;100208.00;;;22.10
15626;BMP180;7912;51.376;6.126;2023-07-28T03:34:33;100213.00;;;22.10
15626;BMP180;7912;51.376;6.126;2023-07-28T03:37:02;100206.00;;;22.10
15626;BMP180;7912;51.376;6.126;2023-07-28T03:39:34;100209.00;;;22.10
15626;BMP180;7912;51.376;6.126;2023-07-28T03:42:04;100212.00;;;22.10
15626;BMP180;7912;51.376;6.126;2023-07-28T03:44:32;100217.00;;;22.10
15626;BMP180;7912;51.376;6.126;2023-07-28T03:47:00;100220.00;;;22.10
15626;BMP180;7912;51.376;6.126;2023-07-28T03:49:29;100220.00;;;22.10
15626;BMP180;7912;51.376;6.126;2023-07-28T03:52:02;100229.00;;;22.20
15626;BMP180;7912;51.376;6.126;2023-07-28T03:54:38;100226.00;;;22.20
15626;BMP180;7912;51.376;6.126;2023-07-28T03:57:09;100230.00;;;22.20
15626;BMP180;7912;51.376;6.126;2023-07-28T03:59:38;100230.00;;;22.20
15626;BMP180;7912;51.376;6.126;2023-07-28T04:02:13;100230.00;;;22.20
15626;BMP180;7912;51.376;6.126;2023-07-28T04:04:47;100221.00;;;22.20
15626;BMP180;7912;51.376;6.126;2023-07-28T04:07:26;100223.00;;;22.20
15626;BMP180;7912;51.376;6.126;2023-07-28T04:10:10;100215.00;;;22.30
15626;BMP180;7912;51.376;6.126;2023-07-28T04:12:42;100209.00;;;22.30
15626;BMP180;7912;51.376;6.126;2023-07-28T04:15:10;100227.00;;;22.30
15626;BMP180;7912;51.376;6.126;2023-07-28T04:17:43;100215.00;;;22.30
15626;BMP180;7912;51.376;6.126;2023-07-28T04:20:14;100229.00;;;22.30
15626;BMP180;7912;51.376;6.126;2023-07-28T04:23:02;100231.00;;;22.30
15626;BMP180;7912;51.376;6.126;2023-07-28T04:25:37;100221.00;;;22.30
15626;BMP180;7912;51.376;6.126;2023-07-28T04:28:10;100231.00;;;22.30
15626;BMP180;7912;51.376;6.126;2023-07-28T04:30:53;100219.00;;;22.40
15626;BMP180;7912;51.376;6.126;2023-07-28T04:33:32;100230.00;;;22.40
15626;BMP180;7912;51.376;6.126;2023-07-28T04:36:09;100230.00;;;22.40
15626;BMP180;7912;51.376;6.126;2023-07-28T04:38:45;100231.00;;;22.40
15626;BMP180;7912;51.376;6.126;2023-07-28T04:41:18;100235.00;;;22.40
15626;BMP180;7912;51.376;6.126;2023-07-28T04:43:50;100220.00;;;22.50
15626;BMP180;7912;51.376;6.126;2023-07-28T04:46:24;100220.00;;;22.50
15626;BMP180;7912;51.376;6.126;2023-07-28T04:48:58;100224.00;;;22.50
15626;BMP180;7912;51.376;6.126;2023-07-28T04:52:08;100231.00;;;22.50
15626;BMP180;7912;51.376;6.126;2023-07-28T04:54:35;100229.00;;;22.50
15626;BMP180;7912;51.376;6.126;2023-07-28T04:57:04;100241.00;;;22.50
15626;BMP180;7912;51.376;6.126;2023-07-28T04:59:48;100242.00;;;22.60
15626;BMP180;7912;51.376;6.126;2023-07-28T05:02:32;100238.00;;;22.60
15626;BMP180;7912;51.376;6.126;2023-07-28T05:05:12;100244.00;;;22.60
15626;BMP180;7912;51.376;6.126;2023-07-28T05:07:49;100242.00;;;22.60
15626;BMP180;7912;51.376;6.126;2023-07-28T05:10:20;100250.00;;;22.60
15626;BMP180;7912;51.376;6.126;2023-07-28T05:12:52;100250.00;;;22.70
15626;BMP180;7912;51.376;6.126;2023-07-28T05:15:27;100256.00;;;22.70
15626;BMP180;7912;51.376;6.126;2023-07-28T05:18:01;100250.00;;;22.70
15626;BMP180;7912;51.376;6.126;2023-07-28T05:20:35;100264.00;;;22.70
15626;BMP180;7912;51.376;6.126;2023-07-28T05:23:08;100250.00;;;22.70
15626;BMP180;7912;51.376;6.126;2023-07-28T05:25:45;100256.00;;;22.70
15626;BMP180;7912;51.376;6.126;2023-07-28T05:28:13;100251.00;;;22.70
15626;BMP180;7912;51.376;6.126;2023-07-28T05:30:44;100261.00;;;22.80
15626;BMP180;7912;51.376;6.126;2023-07-28T05:33:12;100267.00;;;22.80
15626;BMP180;7912;51.376;6.126;2023-07-28T05:35:58;100273.00;;;22.80
15626;BMP180;7912;51.376;6.126;2023-07-28T05:38:35;100279.00;;;22.80
15626;BMP180;7912;51.376;6.126;2023-07-28T05:41:08;100270.00;;;22.80
15626;BMP180;7912;51.376;6.126;2023-07-28T05:43:43;100283.00;;;22.70
15626;BMP180;7912;51.376;6.126;2023-07-28T05:46:23;100284.00;;;22.70
15626;BMP180;7912;51.376;6.126;2023-07-28T05:48:59;100285.00;;;22.70
15626;BMP180;7912;51.376;6.126;2023-07-28T05:51:46;100292.00;;;22.70
15626;BMP180;7912;51.376;6.126;2023-07-28T05:54:28;100286.00;;;22.70
15626;BMP180;7912;51.376;6.126;2023-07-28T05:56:57;100291.00;;;22.70
15626;BMP180;7912;51.376;6.126;2023-07-28T05:59:54;100294.00;;;22.70
15626;BMP180;7912;51.376;6.126;2023-07-28T06:02:28;100291.00;;;22.70
15626;BMP180;7912;51.376;6.126;2023-07-28T06:05:00;100301.00;;;22.70
15626;BMP180;7912;51.376;6.126;2023-07-28T06:07:39;100298.00;;;22.80
15626;BMP180;7912;51.376;6.126;2023-07-28T06:10:13;100316.00;;;22.80
15626;BMP180;7912;51.376;6.126;2023-07-28T06:12:46;100313.00;;;22.80
15626;BMP180;7912;51.376;6.126;2023-07-28T06:15:22;100313.00;;;22.90
15626;BMP180;7912;51.376;6.126;2023-07-28T06:17:55;100302.00;;;22.90
15626;BMP180;7912;51.376;6.126;2023-07-28T06:20:31;100314.00;;;22.90
15626;BMP180;7912;51.376;6.126;2023-07-28T06:25:59;100308.00;;;23.00
15626;BMP180;7912;51.376;6.126;2023-07-28T06:28:33;100305.00;;;23.10
15626;BMP180;7912;51.376;6.126;2023-07-28T06:31:14;100304.00;;;23.10
15626;BMP180;7912;51.376;6.126;2023-07-28T06:33:46;100302.00;;;23.10
15626;BMP180;7912;51.376;6.126;2023-07-28T06:36:57;100307.00;;;23.20
15626;BMP180;7912;51.376;6.126;2023-07-28T06:39:38;100298.00;;;23.30
15626;BMP180;7912;51.376;6.126;2023-07-28T06:42:08;100313.00;;;23.40
15626;BMP180;7912;51.376;6.126;2023-07-28T06:48:56;100322.00;;;23.80
15626;BMP180;7912;51.376;6.126;2023-07-28T06:51:24;100316.00;;;24.00
15626;BMP180;7912;51.376;6.126;2023-07-28T06:54:31;100317.00;;;24.20
15626;BMP180;7912;51.376;6.126;2023-07-28T07:00:28;100320.00;;;24.30
15626;BMP180;7912;51.376;6.126;2023-07-28T07:04:10;100322.00;;;24.30
15626;BMP180;7912;51.376;6.126;2023-07-28T07:06:45;100325.00;;;24.20
15626;BMP180;7912;51.376;6.126;2023-07-28T07:10:11;100334.00;;;24.30
15626;BMP180;7912;51.376;6.126;2023-07-28T07:13:03;100345.00;;;24.30
15626;BMP180;7912;51.376;6.126;2023-07-28T07:15:49;100340.00;;;24.30
15626;BMP180;7912;51.376;6.126;2023-07-28T07:18:30;100335.00;;;24.30
15626;BMP180;7912;51.376;6.126;2023-07-28T07:21:23;100343.00;;;24.30
15626;BMP180;7912;51.376;6.126;2023-07-28T07:27:54;100346.00;;;24.20
15626;BMP180;7912;51.376;6.126;2023-07-28T07:30:45;100345.00;;;24.20
15626;BMP180;7912;51.376;6.126;2023-07-28T07:33:20;100353.00;;;24.20
15626;BMP180;7912;51.376;6.126;2023-07-28T07:40:35;100352.00;;;24.20
15626;BMP180;7912;51.376;6.126;2023-07-28T07:44:13;100350.00;;;24.20
15626;BMP180;7912;51.376;6.126;2023-07-28T07:46:41;100354.00;;;24.30
15626;BMP180;7912;51.376;6.126;2023-07-28T07:49:22;100365.00;;;24.30
15626;BMP180;7912;51.376;6.126;2023-07-28T07:52:00;100361.00;;;24.30
15626;BMP180;7912;51.376;6.126;2023-07-28T07:58:27;100356.00;;;24.50
15626;BMP180;7912;51.376;6.126;2023-07-28T08:01:05;100371.00;;;24.50
15626;BMP180;7912;51.376;6.126;2023-07-28T08:03:56;100367.00;;;24.50
15626;BMP180;7912;51.376;6.126;2023-07-28T08:09:28;100371.00;;;24.40
15626;BMP180;7912;51.376;6.126;2023-07-28T08:12:19;100376.00;;;24.40
15626;BMP180;7912;51.376;6.126;2023-07-28T08:15:10;100380.00;;;24.40
15626;BMP180;7912;51.376;6.126;2023-07-28T08:18:01;100374.00;;;24.30
15626;BMP180;7912;51.376;6.126;2023-07-28T08:20:52;100371.00;;;24.40
15626;BMP180;7912;51.376;6.126;2023-07-28T08:23:20;100381.00;;;24.40
15626;BMP180;7912;51.376;6.126;2023-07-28T08:25:48;100383.00;;;24.40
15626;BMP180;7912;51.376;6.126;2023-07-28T08:28:26;100375.00;;;24.40
15626;BMP180;7912;51.376;6.126;2023-07-28T08:34:32;100383.00;;;24.50
15626;BMP180;7912;51.376;6.126;2023-07-28T08:37:00;100387.00;;;24.50
15626;BMP180;7912;51.376;6.126;2023-07-28T08:39:36;100391.00;;;24.60
15626;BMP180;7912;51.376;6.126;2023-07-28T08:42:17;100395.00;;;24.60
15626;BMP180;7912;51.376;6.126;2023-07-28T08:44:44;100394.00;;;24.60
15626;BMP180;7912;51.376;6.126;2023-07-28T08:47:19;100390.00;;;24.60
15626;BMP180;7912;51.376;6.126;2023-07-28T08:49:46;100393.00;;;24.70
15626;BMP180;7912;51.376;6.126;2023-07-28T08:52:34;100392.00;;;24.90
15626;BMP180;7912;51.376;6.126;2023-07-28T08:55:26;100387.00;;;25.20
15626;BMP180;7912;51.376;6.126;2023-07-28T08:58:19;100381.00;;;25.70
15626;BMP180;7912;51.376;6.126;2023-07-28T09:01:26;100377.00;;;26.40
15626;BMP180;7912;51.376;6.126;2023-07-28T09:04:20;100378.00;;;27.00
15626;BMP180;7912;51.376;6.126;2023-07-28T09:07:09;100387.00;;;27.50
15626;BMP180;7912;51.376;6.126;2023-07-28T09:10:01;100399.00;;;27.90
15626;BMP180;7912;51.376;6.126;2023-07-28T09:13:03;100398.00;;;28.10
15626;BMP180;7912;51.376;6.126;2023-07-28T09:15:40;100395.00;;;28.00
15626;BMP180;7912;51.376;6.126;2023-07-28T09:18:16;100403.00;;;27.80
15626;BMP180;7912;51.376;6.126;2023-07-28T09:20:45;100395.00;;;27.60
15626;BMP180;7912;51.376;6.126;2023-07-28T09:23:14;100403.00;;;27.50
15626;BMP180;7912;51.376;6.126;2023-07-28T09:25:43;100401.00;;;27.40
15626;BMP180;7912;51.376;6.126;2023-07-28T09:28:22;100403.00;;;27.40
15626;BMP180;7912;51.376;6.126;2023-07-28T09:30:51;100404.00;;;27.40
15626;BMP180;7912;51.376;6.126;2023-07-28T09:33:34;100410.00;;;27.50
15626;BMP180;7912;51.376;6.126;2023-07-28T09:36:14;100398.00;;;27.70
15626;BMP180;7912;51.376;6.126;2023-07-28T09:38:48;100390.00;;;27.90
15626;BMP180;7912;51.376;6.126;2023-07-28T09:41:23;100396.00;;;28.20
15626;BMP180;7912;51.376;6.126;2023-07-28T09:43:55;100395.00;;;28.50
15626;BMP180;7912;51.376;6.126;2023-07-28T09:46:37;100403.00;;;28.80
15626;BMP180;7912;51.376;6.126;2023-07-28T09:49:46;100401.00;;;29.10
15626;BMP180;7912;51.376;6.126;2023-07-28T09:53:09;100406.00;;;29.40
15626;BMP180;7912;51.376;6.126;2023-07-28T09:56:18;100390.00;;;29.70
15626;BMP180;7912;51.376;6.126;2023-07-28T09:59:18;100391.00;;;30.00
15626;BMP180;7912;51.376;6.126;2023-07-28T10:05:16;100396.00;;;30.50
15626;BMP180;7912;51.376;6.126;2023-07-28T10:11:23;100389.00;;;31.00
15626;BMP180;7912;51.376;6.126;2023-07-28T10:13:57;100395.00;;;31.80
15626;BMP180;7912;51.376;6.126;2023-07-28T10:16:40;100392.00;;;32.50
15626;BMP180;7912;51.376;6.126;2023-07-28T10:19:20;100391.00;;;33.20
15626;BMP180;7912;51.376;6.126;2023-07-28T10:22:02;100394.00;;;33.70
15626;BMP180;7912;51.376;6.126;2023-07-28T10:25:01;100406.00;;;33.80
15626;BMP180;7912;51.376;6.126;2023-07-28T10:27:38;100399.00;;;34.00
15626;BMP180;7912;51.376;6.126;2023-07-28T10:30:18;100408.00;;;34.10
15626;BMP180;7912;51.376;6.126;2023-07-28T10:33:02;100405.00;;;34.20
15626;BMP180;7912;51.376;6.126;2023-07-28T10:35:55;100399.00;;;34.10
15626;BMP180;7912;51.376;6.126;2023-07-28T10:38:41;100407.00;;;34.30
15626;BMP180;7912;51.376;6.126;2023-07-28T10:41:38;100401.00;;;34.40
15626;BMP180;7912;51.376;6.126;2023-07-28T10:44:10;100408.00;;;34.40
15626;BMP180;7912;51.376;6.126;2023-07-28T10:46:47;100409.00;;;34.30
15626;BMP180;7912;51.376;6.126;2023-07-28T10:49:17;100406.00;;;34.10
15626;BMP180;7912;51.376;6.126;2023-07-28T10:51:52;100416.00;;;34.30
15626;BMP180;7912;51.376;6.126;2023-07-28T10:54:31;100403.00;;;34.40
15626;BMP180;7912;51.376;6.126;2023-07-28T10:57:08;100416.00;;;34.20
15626;BMP180;7912;51.376;6.126;2023-07-28T10:59:42;100395.00;;;33.80
15626;BMP180;7912;51.376;6.126;2023-07-28T11:02:14;100397.00;;;33.60
15626;BMP180;7912;51.376;6.126;2023-07-28T11:05:09;100397.00;;;33.80
15626;BMP180;7912;51.376;6.126;2023-07-28T11:07:46;100415.00;;;34.00
15626;BMP180;7912;51.376;6.126;2023-07-28T11:10:14;100420.00;;;33.70
15626;BMP180;7912;51.376;6.126;2023-07-28T11:12:52;100423.00;;;33.30
15626;BMP180;7912;51.376;6.126;2023-07-28T11:15:44;100430.00;;;32.60
15626;BMP180;7912;51.376;6.126;2023-07-28T11:18:25;100423.00;;;32.10
15626;BMP180;7912;51.376;6.126;2023-07-28T11:21:17;100422.00;;;31.70
15626;BMP180;7912;51.376;6.126;2023-07-28T11:23:50;100430.00;;;31.60
15626;BMP180;7912;51.376;6.126;2023-07-28T11:26:23;100432.00;;;31.50
15626;BMP180;7912;51.376;6.126;2023-07-28T11:28:56;100417.00;;;31.60
15626;BMP180;7912;51.376;6.126;2023-07-28T11:31:26;100423.00;;;31.90
15626;BMP180;7912;51.376;6.126;2023-07-28T11:33:54;100421.00;;;32.10
15626;BMP180;7912;51.376;6.126;2023-07-28T11:39:40;100419.00;;;32.60
15626;BMP180;7912;51.376;6.126;2023-07-28T11:42:12;100416.00;;;32.70
15626;BMP180;7912;51.376;6.126;2023-07-28T11:44:43;100417.00;;;32.90
15626;BMP180;7912;51.376;6.126;2023-07-28T11:47:17;100427.00;;;33.00
15626;BMP180;7912;51.376;6.126;2023-07-28T11:49:51;100423.00;;;33.10
15626;BMP180;7912;51.376;6.126;2023-07-28T11:52:24;100407.00;;;33.30
15626;BMP180;7912;51.376;6.126;2023-07-28T11:55:01;100407.00;;;33.40
15626;BMP180;7912;51.376;6.126;2023-07-28T11:57:31;100415.00;;;33.40
15626;BMP180;7912;51.376;6.126;2023-07-28T12:00:09;100421.00;;;33.50
15626;BMP180;7912;51.376;6.126;2023-07-28T12:02:40;100415.00;;;33.70
15626;BMP180;7912;51.376;6.126;2023-07-28T12:05:14;100421.00;;;33.90
15626;BMP180;7912;51.376;6.126;2023-07-28T12:07:52;100409.00;;;34.20
15626;BMP180;7912;51.376;6.126;2023-07-28T12:10:27;100413.00;;;34.50
15626;BMP180;7912;51.376;6.126;2023-07-28T12:13:15;100411.00;;;34.50
15626;BMP180;7912;51.376;6.126;2023-07-28T12:15:56;100408.00;;;34.20
15626;BMP180;7912;51.376;6.126;2023-07-28T12:21:21;100422.00;;;33.60
15626;BMP180;7912;51.376;6.126;2023-07-28T12:24:02;100434.00;;;33.30
15626;BMP180;7912;51.376;6.126;2023-07-28T12:26:32;100420.00;;;33.20
15626;BMP180;7912;51.376;6.126;2023-07-28T12:29:04;100419.00;;;33.30
15626;BMP180;7912;51.376;6.126;2023-07-28T12:31:34;100429.00;;;33.40
15626;BMP180;7912;51.376;6.126;2023-07-28T12:34:12;100430.00;;;33.60
15626;BMP180;7912;51.376;6.126;2023-07-28T12:36:51;100419.00;;;33.60
15626;BMP180;7912;51.376;6.126;2023-07-28T12:39:20;100425.00;;;33.60
15626;BMP180;7912;51.376;6.126;2023-07-28T12:41:51;100421.00;;;33.50
15626;BMP180;7912;51.376;6.126;2023-07-28T12:44:22;100432.00;;;33.30
15626;BMP180;7912;51.376;6.126;2023-07-28T12:47:10;100433.00;;;33.00
15626;BMP180;7912;51.376;6.126;2023-07-28T12:49:38;100443.00;;;32.70
15626;BMP180;7912;51.376;6.126;2023-07-28T12:52:06;100435.00;;;32.50
15626;BMP180;7912;51.376;6.126;2023-07-28T12:54:45;100449.00;;;32.30
15626;BMP180;7912;51.376;6.126;2023-07-28T12:57:14;100442.00;;;32.20
15626;BMP180;7912;51.376;6.126;2023-07-28T12:59:41;100444.00;;;32.00
15626;BMP180;7912;51.376;6.126;2023-07-28T13:02:12;100451.00;;;32.00
15626;BMP180;7912;51.376;6.126;2023-07-28T13:04:39;100447.00;;;32.00
15626;BMP180;7912;51.376;6.126;2023-07-28T13:07:07;100449.00;;;32.10
15626;BMP180;7912;51.376;6.126;2023-07-28T13:09:37;100443.00;;;32.10
15626;BMP180;7912;51.376;6.126;2023-07-28T13:12:08;100441.00;;;32.00
15626;BMP180;7912;51.376;6.126;2023-07-28T13:14:38;100444.00;;;31.90
15626;BMP180;7912;51.376;6.126;2023-07-28T13:17:05;100453.00;;;31.80
15626;BMP180;7912;51.376;6.126;2023-07-28T13:19:33;100452.00;;;31.60
15626;BMP180;7912;51.376;6.126;2023-07-28T13:22:01;100443.00;;;31.50
15626;BMP180;7912;51.376;6.126;2023-07-28T13:24:29;100457.00;;;31.30
15626;BMP180;7912;51.376;6.126;2023-07-28T13:26:56;100452.00;;;31.00
15626;BMP180;7912;51.376;6.126;2023-07-28T13:29:24;100459.00;;;30.90
15626;BMP180;7912;51.376;6.126;2023-07-28T13:31:58;100446.00;;;30.60
15626;BMP180;7912;51.376;6.126;2023-07-28T13:34:27;100460.00;;;30.50
15626;BMP180;7912;51.376;6.126;2023-07-28T13:36:55;100462.00;;;30.30
15626;BMP180;7912;51.376;6.126;2023-07-28T13:39:23;100464.00;;;30.20
15626;BMP180;7912;51.376;6.126;2023-07-28T13:41:51;100457.00;;;30.10
15626;BMP180;7912;51.376;6.126;2023-07-28T13:44:18;100454.00;;;30.20
15626;BMP180;7912;51.376;6.126;2023-07-28T13:46:45;100452.00;;;30.30
15626;BMP180;7912;51.376;6.126;2023-07-28T13:49:13;100448.00;;;30.30
15626;BMP180;7912;51.376;6.126;2023-07-28T13:51:46;100455.00;;;30.30
15626;BMP180;7912;51.376;6.126;2023-07-28T13:54:17;100449.00;;;30.30
15626;BMP180;7912;51.376;6.126;2023-07-28T13:56:47;100447.00;;;30.40
15626;BMP180;7912;51.376;6.126;2023-07-28T13:59:17;100443.00;;;30.50
15626;BMP180;7912;51.376;6.126;2023-07-28T14:01:44;100437.00;;;30.60
15626;BMP180;7912;51.376;6.126;2023-07-28T14:04:12;100438.00;;;30.80
15626;BMP180;7912;51.376;6.126;2023-07-28T14:06:41;100429.00;;;30.90
15626;BMP180;7912;51.376;6.126;2023-07-28T14:09:08;100441.00;;;31.00
15626;BMP180;7912;51.376;6.126;2023-07-28T14:11:36;100428.00;;;31.00
15626;BMP180;7912;51.376;6.126;2023-07-28T14:14:04;100437.00;;;31.00
15626;BMP180;7912;51.376;6.126;2023-07-28T14:16:31;100442.00;;;31.10
15626;BMP180;7912;51.376;6.126;2023-07-28T14:18:59;100433.00;;;31.00
15626;BMP180;7912;51.376;6.126;2023-07-28T14:21:27;100433.00;;;30.90
15626;BMP180;7912;51.376;6.126;2023-07-28T14:23:54;100436.00;;;30.90
15626;BMP180;7912;51.376;6.126;2023-07-28T14:26:21;100438.00;;;30.70
15626;BMP180;7912;51.376;6.126;2023-07-28T14:33:03;100436.00;;;30.20
15626;BMP180;7912;51.376;6.126;2023-07-28T14:35:33;100435.00;;;30.10
15626;BMP180;7912;51.376;6.126;2023-07-28T14:38:01;100440.00;;;30.10
15626;BMP180;7912;51.376;6.126;2023-07-28T14:40:28;100437.00;;;30.10
15626;BMP180;7912;51.376;6.126;2023-07-28T14:42:56;100439.00;;;30.00
15626;BMP180;7912;51.376;6.126;2023-07-28T14:45:25;100434.00;;;30.00
15626;BMP180;7912;51.376;6.126;2023-07-28T14:47:53;100436.00;;;29.90
15626;BMP180;7912;51.376;6.126;2023-07-28T14:50:22;100431.00;;;29.80
15626;BMP180;7912;51.376;6.126;2023-07-28T14:52:50;100440.00;;;29.80
15626;BMP180;7912;51.376;6.126;2023-07-28T14:55:17;100437.00;;;29.80
15626;BMP180;7912;51.376;6.126;2023-07-28T14:57:47;100429.00;;;30.00
15626;BMP180;7912;51.376;6.126;2023-07-28T15:00:15;100441.00;;;30.00
15626;BMP180;7912;51.376;6.126;2023-07-28T15:02:42;100442.00;;;30.00
15626;BMP180;7912;51.376;6.126;2023-07-28T15:05:12;100445.00;;;30.00
15626;BMP180;7912;51.376;6.126;2023-07-28T15:07:40;100441.00;;;29.90
15626;BMP180;7912;51.376;6.126;2023-07-28T15:10:08;100433.00;;;29.60
15626;BMP180;7912;51.376;6.126;2023-07-28T15:12:35;100446.00;;;29.30
15626;BMP180;7912;51.376;6.126;2023-07-28T15:15:06;100436.00;;;29.00
15626;BMP180;7912;51.376;6.126;2023-07-28T15:22:16;100448.00;;;28.20
15626;BMP180;7912;51.376;6.126;2023-07-28T15:24:44;100446.00;;;28.00
15626;BMP180;7912;51.376;6.126;2023-07-28T15:27:11;100447.00;;;27.90
15626;BMP180;7912;51.376;6.126;2023-07-28T15:29:41;100444.00;;;28.10
15626;BMP180;7912;51.376;6.126;2023-07-28T15:32:08;100444.00;;;28.70
15626;BMP180;7912;51.376;6.126;2023-07-28T15:34:35;100430.00;;;29.60
15626;BMP180;7912;51.376;6.126;2023-07-28T15:37:04;100422.00;;;30.80
15626;BMP180;7912;51.376;6.126;2023-07-28T15:39:37;100425.00;;;32.00
15626;BMP180;7912;51.376;6.126;2023-07-28T15:42:05;100419.00;;;33.00
15626;BMP180;7912;51.376;6.126;2023-07-28T15:44:32;100417.00;;;33.90
15626;BMP180;7912;51.376;6.126;2023-07-28T15:47:00;100415.00;;;34.60
15626;BMP180;7912;51.376;6.126;2023-07-28T15:49:28;100404.00;;;35.10
15626;BMP180;7912;51.376;6.126;2023-07-28T15:51:55;100414.00;;;35.40
15626;BMP180;7912;51.376;6.126;2023-07-28T15:54:25;100414.00;;;35.60
15626;BMP180;7912;51.376;6.126;2023-07-28T15:56:52;100413.00;;;35.70
15626;BMP180;7912;51.376;6.126;2023-07-28T15:59:20;100421.00;;;35.90